Time;durP1;ratioP1;P1;durP2;ratioP2;P2;SDS_P1;SDS_P2;PMS_P1;PMS_P2;Temp;Humidity;BMP_temperature;BMP_pressure;BME280_temperature;BME280_humidity;BME280_pressure;Samples;Min_cycle;Max_cycle;Signal;HPM_P1;HPM_P2
2022/06/10 00:00:24;;;;;;;5.17;3.70;;;;;;;18.41;100.00;62768.72;5092155;28;20694;-74
2022/06/10 00:02:52;;;;;;;6.67;4.17;;;;;;;18.42;100.00;62767.75;5091863;28;20226;-73
2022/06/10 00:05:22;;;;;;;12.03;4.43;;;;;;;18.58;100.00;62787.06;5092175;28;20191;-74
2022/06/10 00:07:50;;;;;;;8.57;4.43;;;;;;;18.48;100.00;62776.81;5092276;28;20616;-73
2022/06/10 00:10:19;;;;;;;6.23;4.00;;;;;;;18.38;100.00;62768.59;5091859;28;20233;-73
2022/06/10 00:12:46;;;;;;;5.50;3.80;;;;;;;18.33;100.00;62765.22;5092058;28;20633;-74
2022/06/10 00:15:14;;;;;;;7.67;4.30;;;;;;;18.52;100.00;62780.59;5092445;28;20659;-74
2022/06/10 00:17:43;;;;;;;4.90;3.93;;;;;;;18.30;100.00;62756.81;5091803;28;20196;-75
2022/06/10 00:20:12;;;;;;;5.60;4.33;;;;;;;18.11;100.00;62736.84;5091732;28;20202;-74
2022/06/10 00:22:39;;;;;;;4.87;4.37;;;;;;;17.85;100.00;62713.44;5091439;28;20718;-73
2022/06/10 00:25:07;;;;;;;7.57;5.13;;;;;;;18.09;100.00;62734.16;5091591;28;20214;-74
2022/06/10 00:27:34;;;;;;;6.07;4.67;;;;;;;17.94;100.00;62717.97;5091958;28;20214;-74
2022/06/10 00:30:01;;;;;;;9.67;5.70;;;;;;;18.06;100.00;62730.94;5091559;28;20307;-74
2022/06/10 00:32:30;;;;;;;7.93;5.53;;;;;;;18.21;100.00;62747.13;5091881;28;20204;-75
2022/06/10 00:34:58;;;;;;;6.57;5.57;;;;;;;17.89;100.00;62712.59;5090898;28;20207;-74
2022/06/10 00:37:25;;;;;;;10.53;6.23;;;;;;;17.98;100.00;62728.00;5091331;28;20733;-74
2022/06/10 00:39:52;;;;;;;6.47;5.10;;;;;;;18.04;100.00;62728.75;5091607;28;20192;-74
2022/06/10 00:42:19;;;;;;;6.90;5.80;;;;;;;18.08;100.00;62730.50;5073402;28;20258;-74
2022/06/10 00:44:48;;;;;;;10.13;5.57;;;;;;;17.89;100.00;62712.59;5091317;28;20589;-74
2022/06/10 00:47:19;;;;;;;8.47;5.30;;;;;;;17.95;100.00;62721.66;5091910;28;20629;-75
2022/06/10 00:49:51;;;;;;;6.27;5.60;;;;;;;18.17;100.00;62748.50;5091425;28;20199;-72
2022/06/10 00:52:26;;;;;;;8.80;5.60;;;;;;;18.18;100.00;62744.41;5091529;28;20700;-73
2022/06/10 00:54:56;;;;;;;7.80;5.10;;;;;;;18.21;100.00;62749.69;5091281;28;20256;-74
2022/06/10 00:57:28;;;;;;;10.50;5.93;;;;;;;18.24;100.00;62750.34;5091489;28;20207;-74
2022/06/10 01:00:00;;;;;;;9.20;5.63;;;;;;;18.16;100.00;62739.13;5091263;28;20203;-74
2022/06/10 01:02:30;;;;;;;7.37;5.80;;;;;;;18.10;100.00;62732.66;5091092;28;20199;-74
2022/06/10 01:04:59;;;;;;;8.60;5.70;;;;;;;18.08;100.00;62733.63;5091258;28;20662;-74
2022/06/10 01:07:32;;;;;;;10.50;6.40;;;;;;;18.11;100.00;62736.84;5091035;28;20204;-74
2022/06/10 01:10:01;;;;;;;9.83;6.10;;;;;;;18.18;100.00;62741.84;5091425;28;20199;-74
2022/06/10 01:13:18;;;;;;;9.47;5.93;;;;;;;18.15;100.00;62740.66;5091173;28;20231;-74
2022/06/10 01:15:54;;;;;;;10.87;5.97;;;;;;;17.47;100.00;62662.63;5082101;28;20337;-75
2022/06/10 01:18:35;;;;;;;15.13;6.03;;;;;;;17.73;100.00;62698.44;5085416;28;20277;-73
2022/06/10 01:21:14;;;;;;;7.83;5.60;;;;;;;17.76;100.00;62699.09;5078519;28;20200;-75
2022/06/10 01:24:12;;;;;;;7.87;5.37;;;;;;;18.31;100.00;62760.50;5076554;28;20227;-73
2022/06/10 01:30:00;;;;;;;10.27;5.90;;;;;;;18.06;100.00;62725.75;5091190;28;20210;-73
2022/06/10 01:32:33;;;;;;;6.03;5.43;;;;;;;18.09;100.00;62734.16;5091116;28;20614;-73
2022/06/10 01:35:14;;;;;;;8.70;5.13;;;;;;;18.22;100.00;62748.19;5090904;28;20204;-74
2022/06/10 01:37:49;;;;;;;7.47;5.87;;;;;;;17.60;100.00;62679.81;5090625;28;20589;-74
2022/06/10 01:40:24;;;;;;;9.43;4.93;;;;;;;18.00;100.00;62725.00;5091273;28;20599;-74
2022/06/10 01:43:00;;;;;;;7.43;5.17;;;;;;;18.03;100.00;62725.63;5091028;28;20223;-75
2022/06/10 01:45:33;;;;;;;6.00;5.20;;;;;;;18.05;100.00;62729.84;5093152;28;20306;-74
2022/06/10 01:48:07;;;;;;;6.23;4.73;;;;;;;18.06;100.00;62730.94;5094927;28;20286;-74
2022/06/10 01:50:41;;;;;;;8.87;5.03;;;;;;;17.48;100.00;62666.31;5094275;28;20253;-75
2022/06/10 01:53:14;;;;;;;6.53;5.37;;;;;;;18.08;100.00;62730.50;5094170;28;20211;-75
2022/06/10 01:55:46;;;;;;;8.00;4.70;;;;;;;18.09;100.00;62734.16;5094535;28;20214;-73
2022/06/10 01:58:19;;;;;;;7.80;5.50;;;;;;;18.16;100.00;62741.72;5094795;28;20192;-74
2022/06/10 02:00:49;;;;;;;15.63;6.40;;;;;;;18.06;100.00;62730.94;5094172;28;20199;-75
2022/06/10 02:03:22;;;;;;;11.10;6.80;;;;;;;18.10;100.00;62732.66;5094682;28;20242;-74
2022/06/10 02:05:56;;;;;;;7.87;5.80;;;;;;;18.15;100.00;62740.66;5094250;28;20321;-75
2022/06/10 02:08:29;;;;;;;7.60;5.63;;;;;;;18.05;100.00;62729.84;5094519;28;20207;-75
2022/06/10 02:11:01;;;;;;;7.77;6.40;;;;;;;18.08;100.00;62730.50;5093962;28;20307;-73
2022/06/10 02:13:32;;;;;;;8.70;5.63;;;;;;;18.18;100.00;62749.03;5094356;28;20192;-74
2022/06/10 02:16:02;;;;;;;9.87;6.13;;;;;;;18.14;100.00;62742.69;5093908;28;20195;-74
2022/06/10 02:18:36;;;;;;;8.87;6.07;;;;;;;18.18;100.00;62741.84;5094012;28;20203;-73
2022/06/10 02:21:08;;;;;;;10.00;6.30;;;;;;;18.19;100.00;62744.97;5093930;28;20587;-74
2022/06/10 02:23:40;;;;;;;8.23;6.13;;;;;;;18.18;100.00;62743.88;5094001;28;20230;-75
2022/06/10 02:26:08;;;;;;;9.00;6.10;;;;;;;18.21;100.00;62747.13;5090790;28;20555;-73
2022/06/10 02:28:39;;;;;;;8.73;6.63;;;;;;;18.23;100.00;62749.28;5090559;28;20689;-73
2022/06/10 02:31:17;;;;;;;8.53;5.97;;;;;;;18.23;100.00;62749.28;5095241;28;20208;-73
2022/06/10 02:33:48;;;;;;;9.70;6.53;;;;;;;17.90;100.00;62711.09;5094014;28;20218;-74
2022/06/10 02:36:21;;;;;;;8.97;6.50;;;;;;;18.40;100.00;62770.75;5093772;28;20612;-76
2022/06/10 02:38:57;;;;;;;8.43;6.40;;;;;;;18.38;100.00;62760.31;5093783;28;20208;-75
2022/06/10 02:41:34;;;;;;;10.57;6.43;;;;;;;18.21;100.00;62749.69;5093776;28;20214;-74
2022/06/10 02:44:09;;;;;;;10.53;6.40;;;;;;;18.18;100.00;62746.44;5093305;28;20711;-75
2022/06/10 02:46:40;;;;;;;7.67;6.20;;;;;;;18.25;100.00;62751.44;5093432;28;20197;-76
2022/06/10 02:49:11;;;;;;;13.73;6.97;;;;;;;18.37;100.00;62764.91;5093423;28;20195;-74
2022/06/10 02:51:40;;;;;;;6.97;5.53;;;;;;;18.41;100.00;62768.72;5093267;28;20196;-75
2022/06/10 02:54:13;;;;;;;9.77;5.53;;;;;;;18.09;100.00;62734.69;5093428;28;20234;-75
2022/06/10 02:56:40;;;;;;;6.20;5.60;;;;;;;18.11;100.00;62738.91;5077933;28;20206;-74
2022/06/10 03:02:20;;;;;;;7.50;5.63;;;;;;;17.99;100.00;62723.38;5093305;28;20206;-74
2022/06/10 03:05:01;;;;;;;9.20;5.30;;;;;;;18.21;100.00;62745.06;5093299;28;20277;-76
2022/06/10 03:07:40;;;;;;;5.63;5.03;;;;;;;18.34;100.00;62761.16;5092945;28;20204;-75
2022/06/10 03:10:18;;;;;;;9.57;5.63;;;;;;;18.33;100.00;62762.66;5093681;28;20202;-75
2022/06/10 03:12:56;;;;;;;10.33;5.23;;;;;;;18.13;100.00;62738.50;5093187;28;20225;-73
2022/06/10 03:15:39;;;;;;;8.30;5.33;;;;;;;18.29;100.00;62755.75;5093239;28;20198;-77
2022/06/10 03:18:14;;;;;;;14.20;4.93;;;;;;;18.20;100.00;62748.59;5092858;28;20202;-75
2022/06/10 03:20:50;;;;;;;7.17;4.50;;;;;;;18.39;100.00;62769.13;5093158;28;20286;-74
2022/06/10 03:23:26;;;;;;;5.00;4.50;;;;;;;18.41;100.00;62773.88;5092575;28;20191;-75
2022/06/10 03:25:58;;;;;;;5.27;4.63;;;;;;;18.05;100.00;62729.84;5088302;28;20200;-75
2022/06/10 03:28:31;;;;;;;5.70;4.50;;;;;;;17.93;100.00;62716.91;5083909;28;20203;-75
2022/06/10 03:31:04;;;;;;;6.90;4.50;;;;;;;17.82;100.00;62705.56;5092951;28;20200;-73
2022/06/10 03:33:37;;;;;;;7.00;4.77;;;;;;;17.62;100.00;62689.69;5092696;28;20240;-75
2022/06/10 03:36:10;;;;;;;7.17;4.63;;;;;;;17.17;100.00;62635.97;5092948;28;20310;-74
2022/06/10 03:38:41;;;;;;;7.57;4.83;;;;;;;17.68;100.00;62687.91;5092618;28;20601;-73
2022/06/10 03:41:09;;;;;;;5.63;5.00;;;;;;;17.61;100.00;62686.03;5092516;28;20584;-73
2022/06/10 03:43:38;;;;;;;5.17;4.63;;;;;;;17.83;100.00;62708.69;5092383;28;20241;-74
2022/06/10 03:46:09;;;;;;;7.40;5.00;;;;;;;17.89;100.00;62710.00;5092325;28;20203;-73
2022/06/10 03:48:41;;;;;;;6.03;4.20;;;;;;;17.84;100.00;62707.19;5092078;28;20616;-73
2022/06/10 03:51:11;;;;;;;6.60;5.03;;;;;;;18.09;100.00;62734.16;5092226;28;20520;-73
2022/06/10 03:53:39;;;;;;;10.33;4.83;;;;;;;18.12;100.00;62732.78;5092463;28;20245;-75
2022/06/10 03:56:06;;;;;;;7.33;4.60;;;;;;;17.98;100.00;62727.44;5092091;28;20206;-75
2022/06/10 03:58:33;;;;;;;6.03;4.40;;;;;;;18.17;100.00;62742.81;5092569;28;20200;-74
2022/06/10 04:01:01;;;;;;;9.30;5.30;;;;;;;18.13;100.00;62741.06;5078031;28;20198;-74
2022/06/10 04:03:28;;;;;;;9.20;4.57;;;;;;;17.39;100.00;62654.56;5092175;28;20313;-74
2022/06/10 04:05:56;;;;;;;9.10;4.37;;;;;;;18.07;100.00;62732.00;5091784;28;20219;-75
2022/06/10 04:08:25;;;;;;;5.13;4.63;;;;;;;18.06;100.00;62728.34;5091162;28;20286;-74
2022/06/10 04:10:52;;;;;;;8.43;4.97;;;;;;;18.05;100.00;62732.97;5091754;28;20207;-75
2022/06/10 04:13:20;;;;;;;7.23;4.90;;;;;;;18.15;100.00;62743.22;5091967;28;20225;-75
2022/06/10 04:15:47;;;;;;;6.93;4.80;;;;;;;18.15;100.00;62740.66;5092044;28;20219;-76
2022/06/10 04:18:16;;;;;;;5.73;4.80;;;;;;;18.33;100.00;62767.81;5091605;28;20210;-76
2022/06/10 04:20:43;;;;;;;5.60;5.03;;;;;;;18.48;100.00;62776.28;5091680;28;20204;-73
2022/06/10 04:23:12;;;;;;;7.67;4.90;;;;;;;18.55;100.00;62786.41;5091989;28;20200;-75
2022/06/10 04:25:40;;;;;;;6.10;5.50;;;;;;;18.54;100.00;62782.75;5090453;28;20289;-76
2022/06/10 04:28:08;;;;;;;8.27;5.60;;;;;;;18.18;100.00;62741.84;5091451;28;20290;-75
2022/06/10 04:30:37;;;;;;;8.57;5.60;;;;;;;17.78;100.00;62703.28;5091528;28;20200;-75
2022/06/10 04:33:05;;;;;;;10.83;6.30;;;;;;;18.55;100.00;62786.41;5091397;28;20241;-75
2022/06/10 04:35:33;;;;;;;7.90;6.67;;;;;;;18.30;100.00;62754.25;5091370;28;20242;-74
2022/06/10 04:38:00;;;;;;;7.57;6.30;;;;;;;17.73;100.00;62700.47;5091476;28;20723;-76
2022/06/10 04:40:30;;;;;;;9.37;6.07;;;;;;;18.60;100.00;62786.66;5091508;28;20204;-75
2022/06/10 04:42:59;;;;;;;8.07;6.10;;;;;;;18.80;100.00;62810.81;5091431;28;20254;-77
2022/06/10 04:45:29;;;;;;;9.03;6.40;;;;;;;18.80;100.00;62810.81;5091089;28;20664;-76
2022/06/10 04:47:55;;;;;;;8.93;6.53;;;;;;;18.77;100.00;62810.19;5091773;28;20207;-76
2022/06/10 04:50:25;;;;;;;10.20;6.73;;;;;;;18.65;100.00;62794.63;5091638;28;20208;-76
2022/06/10 04:52:53;;;;;;;6.90;6.00;;;;;;;19.06;100.00;62838.91;5091087;28;20207;-76
2022/06/10 04:55:22;;;;;;;8.30;6.10;;;;;;;18.70;100.00;62802.59;5091483;28;20225;-75
2022/06/10 04:57:49;;;;;;;9.27;6.43;;;;;;;18.24;100.00;62745.72;5091304;28;20202;-76
2022/06/10 05:00:33;;;;;;;11.37;7.20;;;;;;;18.85;100.00;62810.53;5091368;28;20207;-75
2022/06/10 05:03:02;;;;;;;7.87;7.03;;;;;;;18.57;100.00;62786.00;5091577;28;20191;-75
2022/06/10 05:05:30;;;;;;;8.57;7.00;;;;;;;18.77;100.00;62807.06;5090947;28;20238;-74
2022/06/10 05:07:57;;;;;;;10.10;6.80;;;;;;;18.54;100.00;62787.91;5091263;28;20192;-76
2022/06/10 05:10:27;;;;;;;10.50;6.93;;;;;;;18.95;100.00;62827.03;5091288;28;20204;-73
2022/06/10 05:12:55;;;;;;;10.47;7.63;;;;;;;18.94;100.00;62831.09;5090847;28;20717;-74
2022/06/10 05:15:24;;;;;;;11.50;7.67;;;;;;;19.01;100.00;62830.94;5090796;28;20211;-74
2022/06/10 05:17:53;;;;;;;13.23;8.00;;;;;;;18.99;100.00;62828.78;5090899;28;20199;-74
2022/06/10 05:20:24;;;;;;;14.93;11.97;;;;;;;19.04;100.00;62834.16;5093233;28;20222;-73
2022/06/10 05:22:51;;;;;;;12.57;9.40;;;;;;;19.03;100.00;62838.25;5095090;28;20230;-76
2022/06/10 05:25:20;;;;;;;13.10;11.20;;;;;;;18.85;100.00;62815.69;5094770;28;20227;-75
2022/06/10 05:27:47;;;;;;;13.77;10.50;;;;;;;19.13;100.00;62846.47;5094970;28;20580;-75
2022/06/10 05:30:19;;;;;;;13.40;9.17;;;;;;;19.33;100.00;62868.09;5094784;28;20594;-74
2022/06/10 05:32:47;;;;;;;11.30;8.93;;;;;;;19.29;100.00;62863.22;5094826;28;20211;-75
2022/06/10 05:35:15;;;;;;;9.70;7.57;;;;;;;19.14;100.00;62852.16;5094436;28;20207;-75
2022/06/10 05:37:43;;;;;;;8.57;7.40;;;;;;;19.05;100.00;62837.84;5094816;28;20659;-74
2022/06/10 05:40:12;;;;;;;13.97;7.87;;;;;;;19.11;100.00;62844.31;5094652;28;20317;-74
2022/06/10 05:42:39;;;;;;;10.03;7.30;;;;;;;18.88;100.00;62822.03;5094440;28;20219;-75
2022/06/10 05:45:08;;;;;;;9.70;7.37;;;;;;;18.97;100.00;62831.78;5094385;28;20223;-74
2022/06/10 05:47:36;;;;;;;8.40;7.47;;;;;;;18.95;100.00;62827.03;5094457;28;20206;-74
2022/06/10 05:50:07;;;;;;;10.37;7.43;;;;;;;18.94;100.00;62828.53;5094527;28;20203;-75
2022/06/10 05:52:35;;;;;;;9.37;8.47;;;;;;;18.96;100.00;62828.09;5094477;28;20200;-75
2022/06/10 05:55:05;;;;;;;9.97;7.50;;;;;;;19.01;100.00;62833.50;5094451;28;20658;-75
2022/06/10 05:57:32;;;;;;;10.67;9.30;;;;;;;18.75;100.00;62805.44;5094191;28;20204;-75
2022/06/10 06:00:00;;;;;;;10.53;9.43;;;;;;;18.99;100.00;62831.34;5094574;28;20666;-74
2022/06/10 06:02:27;;;;;;;10.23;8.20;;;;;;;19.07;100.00;62840.00;5094207;28;20200;-74
2022/06/10 06:04:54;;;;;;;9.97;8.13;;;;;;;19.02;100.00;62834.03;5094276;28;20249;-74
2022/06/10 06:07:26;;;;;;;17.90;8.60;;;;;;;19.02;100.00;62837.16;5094099;28;20199;-73
2022/06/10 06:09:54;;;;;;;8.90;7.63;;;;;;;18.98;100.00;62832.84;5093823;28;20662;-75
2022/06/10 06:12:22;;;;;;;8.50;7.23;;;;;;;18.93;100.00;62824.88;5094146;28;20211;-74
2022/06/10 06:14:50;;;;;;;11.27;8.00;;;;;;;19.01;100.00;62833.50;5093913;28;20207;-75
2022/06/10 06:17:19;;;;;;;9.37;7.90;;;;;;;18.82;100.00;62812.44;5094070;28;20644;-74
2022/06/10 06:19:46;;;;;;;9.00;8.00;;;;;;;19.05;100.00;62840.41;5093821;28;20203;-74
2022/06/10 06:22:13;;;;;;;13.37;8.93;;;;;;;18.94;100.00;62825.94;5093716;28;20204;-74
2022/06/10 06:24:42;;;;;;;9.60;8.60;;;;;;;18.92;100.00;62830.97;5093508;28;20722;-75
2022/06/10 06:27:14;;;;;;;9.83;8.10;;;;;;;18.52;100.00;62781.13;5079544;28;20208;-74
2022/06/10 06:29:42;;;;;;;11.63;8.90;;;;;;;18.99;100.00;62825.66;5079998;28;20203;-75
2022/06/10 06:32:09;;;;;;;10.47;7.70;;;;;;;19.05;100.00;62837.28;5092507;28;20195;-76
2022/06/10 06:34:38;;;;;;;11.17;8.33;;;;;;;18.97;100.00;62824.03;5093719;28;20211;-74
2022/06/10 06:37:06;;;;;;;11.93;7.50;;;;;;;18.60;100.00;62784.06;5093580;28;20226;-74
2022/06/10 06:39:35;;;;;;;8.80;8.00;;;;;;;19.10;100.00;62843.22;5093684;28;20215;-75
2022/06/10 06:42:04;;;;;;;9.13;8.23;;;;;;;19.18;100.00;62849.28;5093240;28;20199;-74
2022/06/10 06:44:33;;;;;;;9.03;8.13;;;;;;;19.11;100.00;62839.16;5093783;28;20231;-75
2022/06/10 06:47:01;;;;;;;13.10;9.47;;;;;;;19.22;100.00;62856.19;5093284;28;20684;-74
2022/06/10 06:49:30;;;;;;;12.30;10.03;;;;;;;19.14;100.00;62847.53;5093242;28;20203;-76
2022/06/10 06:51:57;;;;;;;13.07;9.40;;;;;;;18.74;100.00;62804.34;5093084;28;20203;-75
2022/06/10 06:54:24;;;;;;;11.00;9.33;;;;;;;19.32;100.00;62867.00;5092692;28;20204;-74
2022/06/10 06:56:52;;;;;;;14.20;9.33;;;;;;;19.48;100.00;62881.16;5075108;28;20204;-74
2022/06/10 06:59:23;;;;;;;12.83;10.20;;;;;;;19.35;100.00;62870.25;5093347;28;20202;-74
2022/06/10 07:01:51;;;;;;;12.67;11.33;;;;;;;19.33;100.00;62867.56;5092864;28;20559;-75
2022/06/10 07:04:18;;;;;;;12.97;11.23;;;;;;;19.46;100.00;62881.06;5093158;28;20200;-74
2022/06/10 07:06:45;;;;;;;15.13;12.00;;;;;;;19.42;100.00;62874.16;5093364;28;20195;-75
2022/06/10 07:09:13;;;;;;;14.33;12.83;;;;;;;19.38;100.00;62878.66;5093283;28;20651;-75
2022/06/10 07:11:41;;;;;;;12.30;11.00;;;;;;;19.43;100.00;62875.22;5071872;28;20204;-74
2022/06/10 07:14:08;;;;;;;13.23;11.63;;;;;;;19.49;100.00;62884.28;5069242;28;20204;-75
2022/06/10 07:16:36;;;;;;;10.83;9.70;;;;;;;19.49;100.00;62884.28;5082169;28;20542;-73
2022/06/10 07:19:04;;;;;;;12.23;10.87;;;;;;;19.35;100.00;62870.25;5093046;28;20226;-75
2022/06/10 07:21:31;;;;;;;10.60;9.03;;;;;;;19.38;100.00;62872.41;5092556;28;20614;-74
2022/06/10 07:23:58;;;;;;;10.30;9.03;;;;;;;19.38;100.00;62872.41;5092649;28;20195;-74
2022/06/10 07:26:25;;;;;;;12.33;11.03;;;;;;;19.48;100.00;62883.22;5092739;28;20582;-75
2022/06/10 07:28:53;;;;;;;19.53;12.10;;;;;;;19.27;100.00;62858.47;5092569;28;20230;-74
2022/06/10 07:31:21;;;;;;;11.03;9.93;;;;;;;19.57;100.00;62890.34;5092768;28;20200;-76
2022/06/10 07:33:49;;;;;;;11.30;10.20;;;;;;;19.76;100.00;62913.47;5092567;28;20207;-75
2022/06/10 07:36:16;;;;;;;12.77;8.97;;;;;;;19.86;100.00;62921.72;5092249;28;20245;-75
2022/06/10 07:38:44;;;;;;;12.10;9.37;;;;;;;20.08;100.00;62948.06;5092380;28;20625;-74
2022/06/10 07:44:04;;;;;;;9.53;8.60;;;;;;;20.05;100.00;62945.38;5048772;28;20313;-74
2022/06/10 07:46:31;;;;;;;11.40;9.33;;;;;;;20.39;100.00;62978.47;5092163;28;20246;-74
2022/06/10 07:49:00;;;;;;;12.47;8.93;;;;;;;20.53;100.00;62994.16;5092546;28;20211;-74
2022/06/10 07:51:27;;;;;;;13.33;9.20;;;;;;;20.63;100.00;63004.97;5092226;28;20206;-74
2022/06/10 07:53:54;;;;;;;8.43;7.60;;;;;;;20.85;100.00;63031.34;5092360;28;20663;-73
2022/06/10 07:56:22;;;;;;;13.63;7.77;;;;;;;20.96;100.00;63040.69;5092319;28;20192;-74
2022/06/10 07:58:53;;;;;;;9.37;7.63;;;;;;;21.01;100.00;63048.69;5091821;28;20199;-75
2022/06/10 08:01:20;;;;;;;10.13;7.10;;;;;;;20.97;100.00;63044.34;5092090;28;20283;-74
2022/06/10 08:03:48;;;;;;;7.67;6.77;;;;;;;20.87;100.00;63030.94;5092473;28;20230;-76
2022/06/10 08:06:18;;;;;;;8.13;7.23;;;;;;;20.93;100.00;63037.41;5091739;28;20584;-74
2022/06/10 08:08:45;;;;;;;8.37;7.50;;;;;;;21.15;100.00;63058.09;5092016;28;20214;-75
2022/06/10 08:11:12;;;;;;;8.40;6.87;;;;;;;21.25;100.00;63071.00;5091864;28;20195;-74
2022/06/10 08:13:39;;;;;;;11.60;7.20;;;;;;;21.49;100.00;63100.09;5091748;28;20670;-75
2022/06/10 08:16:07;;;;;;;8.77;6.93;;;;;;;21.78;100.00;63131.50;5092055;28;20572;-75
2022/06/10 08:18:36;;;;;;;10.00;7.40;;;;;;;22.03;100.00;63155.47;5092023;28;20204;-74
2022/06/10 08:23:50;;;;;;;7.80;7.10;;;;;;;22.30;100.00;63182.09;5092183;28;20210;-73
2022/06/10 08:26:16;;;;;;;8.57;6.27;;;;;;;21.97;100.00;63156.75;5091181;28;20237;-75
2022/06/10 08:28:46;;;;;;;11.20;6.70;;;;;;;22.17;100.00;63172.66;5091656;28;20210;-74
2022/06/10 08:31:14;;;;;;;8.00;6.93;;;;;;;22.47;100.00;63203.13;5091877;28;20589;-74
2022/06/10 08:33:44;;;;;;;9.87;6.37;;;;;;;22.80;100.00;63240.41;5091626;28;20261;-75
2022/06/10 08:36:13;;;;;;;10.90;6.77;;;;;;;22.58;100.00;63215.03;5091430;28;20247;-75
2022/06/10 08:38:41;;;;;;;8.93;6.00;;;;;;;23.05;100.00;63262.28;5091371;28;20287;-76
2022/06/10 08:41:16;;;;;;;10.00;5.90;;;;;;;22.95;100.00;63254.06;5091764;28;20207;-75
2022/06/10 08:43:56;;;;;;;11.27;8.33;;;;;;;22.80;100.00;63237.81;5091343;28;20223;-75
2022/06/10 08:46:50;;;;;;;7.90;5.60;;;;;;;22.84;100.00;63244.75;5091634;28;20241;-74
2022/06/10 08:49:41;;;;;;;7.33;5.93;;;;;;;23.17;100.00;63280.50;5091077;28;20201;-74
2022/06/10 08:52:16;;;;;;;8.23;6.30;;;;;;;23.19;100.00;63282.66;5091471;28;20556;-74
2022/06/10 08:54:52;;;;;;;8.30;6.30;;;;;;;23.01;100.00;63260.56;5090870;28;20281;-75
2022/06/10 08:57:30;;;;;;;12.47;6.37;;;;;;;22.94;100.00;63256.09;5091044;28;20202;-75
2022/06/10 08:59:58;;;;;;;6.43;5.80;;;;;;;22.63;100.00;63223.06;5091399;28;20207;-75
2022/06/10 09:02:31;;;;;;;8.87;5.80;;;;;;;22.37;100.00;63189.69;5091081;28;20195;-75
2022/06/10 09:05:05;;;;;;;7.00;5.80;;;;;;;22.83;100.00;63243.66;5091116;28;20666;-74
2022/06/10 09:07:40;;;;;;;8.60;5.43;;;;;;;22.82;100.00;63245.19;5091366;28;20198;-74
2022/06/10 09:10:16;;;;;;;6.40;5.53;;;;;;;22.81;100.00;63241.47;5091447;28;20249;-74
2022/06/10 09:13:06;;;;;;;6.27;5.60;;;;;;;22.64;100.00;63224.16;5091144;28;20203;-75
2022/06/10 09:15:35;;;;;;;7.60;5.93;;;;;;;22.66;100.00;63221.13;5091172;28;20261;-74
2022/06/10 09:18:07;;;;;;;13.80;6.60;;;;;;;22.22;100.00;63178.06;5091182;28;20200;-75
2022/06/10 09:20:40;;;;;;;12.33;6.80;;;;;;;22.07;100.00;63159.78;5073279;28;20261;-75
2022/06/10 09:23:17;;;;;;;11.80;6.93;;;;;;;21.67;100.00;63119.06;5091107;28;20195;-76
2022/06/10 09:25:46;;;;;;;24.03;12.00;;;;;;;21.80;100.00;63133.66;5090399;28;20231;-76
2022/06/10 09:28:14;;;;;;;16.50;10.90;;;;;;;21.74;100.00;63129.22;5091197;28;20207;-75
2022/06/10 09:30:47;;;;;;;18.47;9.17;;;;;;;21.45;100.00;63095.22;5090910;28;20639;-75
2022/06/10 09:33:27;;;;;;;26.57;11.03;;;;;;;21.21;100.00;63066.66;5091205;28;20204;-75
2022/06/10 09:36:09;;;;;;;11.60;8.03;;;;;;;21.05;100.00;63051.94;5091044;28;20238;-77
2022/06/10 09:38:43;;;;;;;10.23;7.83;;;;;;;20.44;100.00;62987.03;5091057;28;20203;-77
2022/06/10 09:41:21;;;;;;;8.53;6.90;;;;;;;20.22;100.00;62963.22;5090957;28;20207;-76
2022/06/10 09:44:18;;;;;;;9.30;7.93;;;;;;;19.93;100.00;62927.22;5091225;28;20215;-76
2022/06/10 09:47:00;;;;;;;7.10;4.97;;;;;;;19.47;100.00;62879.56;5090625;28;20231;-76
2022/06/10 09:49:46;;;;;;;5.70;5.20;;;;;;;18.37;100.00;62762.34;5090906;28;20207;-76
2022/06/10 09:52:21;;;;;;;6.80;6.10;;;;;;;18.70;100.00;62804.63;5090557;28;20208;-75
2022/06/10 09:55:03;;;;;;;7.97;6.63;;;;;;;18.43;100.00;62770.88;5090975;28;20203;-74
2022/06/10 09:58:06;;;;;;;10.63;7.50;;;;;;;18.99;100.00;62831.34;5090729;28;20203;-77
2022/06/10 10:00:42;;;;;;;8.37;7.33;;;;;;;18.98;100.00;62830.25;5085212;28;20199;-77
2022/06/10 10:03:28;;;;;;;9.50;8.20;;;;;;;18.82;100.00;62810.41;5092262;28;20195;-76
2022/06/10 10:06:21;;;;;;;10.40;8.40;;;;;;;19.13;100.00;62843.88;5093522;28;20225;-77
2022/06/10 10:09:01;;;;;;;8.57;7.40;;;;;;;19.12;100.00;62845.38;5094453;28;20199;-76
2022/06/10 10:11:37;;;;;;;8.57;7.67;;;;;;;19.22;100.00;62855.63;5094715;28;20687;-76
2022/06/10 10:14:13;;;;;;;10.43;7.93;;;;;;;19.19;100.00;62850.38;5094295;28;20282;-76
2022/06/10 10:16:52;;;;;;;8.93;8.03;;;;;;;19.35;100.00;62869.72;5094193;28;20210;-75
2022/06/10 10:19:35;;;;;;;11.50;8.53;;;;;;;19.26;100.00;62857.91;5094803;28;20292;-76
2022/06/10 10:22:22;;;;;;;11.37;8.43;;;;;;;19.35;100.00;62867.69;5094271;28;20199;-77
2022/06/10 10:24:49;;;;;;;12.50;9.50;;;;;;;19.27;100.00;62855.88;5094005;28;20272;-76
2022/06/10 10:27:21;;;;;;;10.97;9.87;;;;;;;19.24;100.00;62853.19;5094589;28;20227;-77
2022/06/10 10:29:53;;;;;;;12.20;9.37;;;;;;;19.33;100.00;62870.69;5094029;28;20594;-76
2022/06/10 10:32:24;;;;;;;11.40;9.73;;;;;;;19.34;100.00;62868.63;5094437;28;20303;-75
2022/06/10 10:34:58;;;;;;;11.70;9.73;;;;;;;19.38;100.00;62872.41;5093991;28;20203;-76
2022/06/10 10:37:29;;;;;;;11.80;9.30;;;;;;;19.38;100.00;62867.25;5094312;28;20235;-76
2022/06/10 10:39:59;;;;;;;15.37;9.43;;;;;;;19.46;100.00;62881.06;5093734;28;20200;-77
2022/06/10 10:42:34;;;;;;;13.87;9.93;;;;;;;19.22;100.00;62858.22;5093840;28;20269;-77
2022/06/10 10:45:05;;;;;;;16.73;13.97;;;;;;;19.47;100.00;62879.56;5093668;28;20195;-75
2022/06/10 10:47:37;;;;;;;18.20;13.90;;;;;;;19.63;100.00;62899.41;5094385;28;20235;-76
2022/06/10 10:50:19;;;;;;;16.90;14.97;;;;;;;19.71;100.00;62908.06;5097413;28;20208;-76
2022/06/10 10:52:48;;;;;;;20.90;14.03;;;;;;;19.80;100.00;62917.81;5094664;28;20199;-75
2022/06/10 10:55:26;;;;;;;13.10;10.20;;;;;;;19.89;100.00;62924.94;5094090;28;20199;-76
2022/06/10 10:58:04;;;;;;;9.33;8.30;;;;;;;20.09;100.00;62946.56;5093848;28;20282;-75
2022/06/10 11:00:35;;;;;;;9.30;8.00;;;;;;;20.28;100.00;62969.72;5093449;28;20981;-77
2022/06/10 11:03:06;;;;;;;11.30;8.43;;;;;;;20.34;100.00;62971.03;5093462;28;20231;-77
2022/06/10 11:05:36;;;;;;;7.23;6.53;;;;;;;20.39;100.00;62976.44;5093403;28;20207;-77
2022/06/10 11:08:21;;;;;;;7.20;6.50;;;;;;;20.56;100.00;63000.00;5093449;28;20204;-76
2022/06/10 11:11:22;;;;;;;8.57;7.67;;;;;;;20.37;100.00;62979.44;5092973;28;20203;-76
2022/06/10 11:13:53;;;;;;;9.23;7.40;;;;;;;19.91;100.00;62927.09;5088286;28;20236;-75
2022/06/10 11:16:56;;;;;;;7.37;6.50;;;;;;;19.83;100.00;62921.59;5093031;28;20207;-76
2022/06/10 11:19:41;;;;;;;8.60;7.30;;;;;;;20.49;100.00;62989.28;5092753;28;20195;-76
2022/06/10 11:22:23;;;;;;;8.50;6.97;;;;;;;20.89;100.00;63033.09;5093075;28;20688;-78
2022/06/10 11:24:53;;;;;;;9.20;6.40;;;;;;;21.11;100.00;63055.84;5092149;28;20283;-77
2022/06/10 11:27:29;;;;;;;5.60;5.00;;;;;;;21.13;100.00;63058.00;5078856;28;20242;-77
2022/06/10 11:30:16;;;;;;;7.63;6.00;;;;;;;21.14;100.00;63064.25;5093279;28;20205;-75
2022/06/10 11:32:57;;;;;;;6.73;6.13;;;;;;;20.70;100.00;63012.56;5092987;28;20223;-75
2022/06/10 11:35:31;;;;;;;8.90;7.20;;;;;;;21.36;100.00;63085.47;5092590;28;20235;-75
2022/06/10 11:38:02;;;;;;;12.37;7.10;;;;;;;21.43;100.00;63091.00;5092342;28;20230;-77
2022/06/10 11:40:40;;;;;;;8.40;7.10;;;;;;;21.52;100.00;63102.81;5093013;28;20228;-77
2022/06/10 11:43:16;;;;;;;10.77;7.50;;;;;;;21.31;100.00;63080.09;5092126;28;20222;-76
2022/06/10 11:45:49;;;;;;;7.40;6.70;;;;;;;21.97;100.00;63151.00;5063095;28;20207;-76
2022/06/10 11:48:25;;;;;;;7.80;7.00;;;;;;;22.00;100.00;63149.59;5090625;28;20199;-75
2022/06/10 11:51:02;;;;;;;9.23;6.27;;;;;;;22.03;100.00;63158.06;5092974;28;20199;-75
2022/06/10 11:53:41;;;;;;;7.83;6.90;;;;;;;21.95;100.00;63149.38;5093091;28;20211;-75
2022/06/10 12:01:51;;;;;;;8.13;6.80;;;;;;;21.96;100.00;63150.47;5092619;28;20702;-76